createdAt,value
2023-02-11T00:01:40.670Z,61.86
2023-02-11T00:04:46.943Z,60.15
2023-02-11T00:07:53.174Z,59.88
2023-02-11T00:11:00.137Z,58.00
2023-02-11T00:14:09.011Z,56.69
2023-02-11T00:17:15.597Z,57.38
2023-02-11T00:20:22.468Z,58.01
2023-02-11T00:23:28.693Z,58.61
2023-02-11T00:26:37.103Z,59.34
2023-02-11T00:29:43.776Z,60.18
2023-02-11T00:32:50.015Z,60.58
2023-02-11T00:35:56.150Z,61.16
2023-02-11T00:39:02.646Z,63.11
2023-02-11T00:42:08.969Z,65.40
2023-02-11T00:45:13.837Z,64.22
2023-02-11T00:48:20.302Z,63.24
2023-02-11T00:51:27.215Z,61.51
2023-02-11T00:54:33.442Z,60.25
2023-02-11T00:57:39.744Z,57.99
2023-02-11T01:00:44.250Z,56.84
2023-02-11T01:03:50.731Z,56.83
2023-02-11T01:06:57.006Z,57.78
2023-02-11T01:10:04.425Z,58.31
2023-02-11T01:13:10.828Z,58.84
2023-02-11T01:16:15.717Z,59.17
2023-02-11T01:19:22.043Z,58.73
2023-02-11T01:22:26.545Z,59.98
2023-02-11T01:25:32.749Z,59.55
2023-02-11T01:28:39.078Z,60.89
2023-02-11T01:31:43.692Z,61.38
2023-02-11T01:34:50.010Z,60.80
2023-02-11T01:37:55.242Z,63.58
2023-02-11T01:41:03.560Z,66.70
2023-02-11T01:44:33.639Z,65.46
2023-02-11T01:47:39.773Z,63.81
2023-02-11T01:50:47.015Z,62.44
2023-02-11T01:54:12.128Z,61.49
2023-02-11T01:57:25.208Z,60.64
2023-02-11T02:00:37.066Z,59.69
2023-02-11T02:03:48.157Z,57.41
2023-02-11T02:07:01.026Z,56.92
2023-02-11T02:10:13.287Z,57.75
2023-02-11T02:13:19.522Z,58.68
2023-02-11T02:16:31.270Z,59.20
2023-02-11T02:20:02.073Z,59.74
2023-02-11T02:23:21.203Z,60.92
2023-02-11T02:26:53.899Z,61.37
2023-02-11T02:30:25.792Z,63.56
2023-02-11T02:33:51.437Z,65.74
2023-02-11T02:37:06.063Z,64.49
2023-02-11T02:40:17.056Z,62.90
2023-02-11T02:43:25.053Z,61.77
2023-02-11T02:46:32.880Z,60.67
2023-02-11T02:49:39.008Z,60.06
2023-02-11T02:52:56.047Z,58.17
2023-02-11T02:56:12.123Z,57.45
2023-02-11T02:59:26.693Z,58.63
2023-02-11T03:02:36.689Z,58.36
2023-02-11T03:05:53.721Z,59.32
2023-02-11T03:09:05.966Z,59.81
2023-02-11T03:12:14.336Z,60.41
2023-02-11T03:15:22.674Z,60.94
2023-02-11T03:18:32.717Z,61.46
2023-02-11T03:21:42.131Z,64.25
2023-02-11T03:24:48.918Z,65.75
2023-02-11T03:27:58.902Z,65.21
2023-02-11T03:31:16.096Z,63.46
2023-02-11T03:34:29.675Z,62.33
2023-02-11T03:37:41.079Z,61.84
2023-02-11T03:40:48.524Z,61.19
2023-02-11T03:43:57.459Z,60.32
2023-02-11T03:47:06.811Z,60.06
2023-02-11T03:50:16.476Z,59.80
2023-02-11T03:53:24.078Z,58.04
2023-02-11T03:56:34.508Z,56.98
2023-02-11T03:59:56.384Z,57.41
2023-02-11T04:03:02.696Z,58.37
2023-02-11T04:06:07.956Z,59.30
2023-02-11T04:09:15.040Z,58.44
2023-02-11T04:12:21.318Z,60.12
2023-02-11T04:15:27.639Z,62.32
2023-02-11T04:18:32.224Z,64.74
2023-02-11T04:21:38.512Z,65.42
2023-02-11T04:24:44.120Z,63.49
2023-02-11T04:27:50.370Z,63.19
2023-02-11T04:30:54.978Z,62.12
2023-02-11T04:34:01.327Z,61.68
2023-02-11T04:37:08.514Z,60.35
2023-02-11T04:40:15.115Z,59.99
2023-02-11T04:43:21.346Z,58.59
2023-02-11T04:46:27.886Z,57.38
2023-02-11T04:49:34.201Z,57.91
2023-02-11T04:52:40.405Z,58.99
2023-02-11T04:55:46.705Z,60.67
2023-02-11T04:58:52.866Z,61.64
2023-02-11T05:01:59.158Z,62.38
2023-02-11T05:05:03.683Z,64.02
2023-02-11T05:08:10.376Z,64.34
2023-02-11T05:11:19.863Z,62.77
2023-02-11T05:14:26.145Z,61.54
2023-02-11T05:17:30.703Z,60.55
2023-02-11T05:20:38.738Z,60.34
2023-02-11T05:23:45.658Z,58.16
2023-02-11T05:26:51.934Z,57.41
2023-02-11T05:29:58.292Z,57.83
2023-02-11T05:33:02.841Z,58.89
2023-02-11T05:36:12.127Z,59.34
2023-02-11T05:39:18.854Z,60.49
2023-02-11T05:42:25.065Z,60.90
2023-02-11T05:45:31.551Z,61.44
2023-02-11T05:48:37.855Z,63.55
2023-02-11T05:51:42.321Z,64.91
2023-02-11T05:54:48.511Z,65.09
2023-02-11T05:57:54.769Z,62.60
2023-02-11T06:00:59.285Z,61.54
2023-02-11T06:04:05.576Z,61.67
2023-02-11T06:07:10.066Z,60.68
2023-02-11T06:10:16.470Z,60.28
2023-02-11T06:13:21.112Z,57.86
2023-02-11T06:16:27.418Z,56.48
2023-02-11T06:19:32.496Z,57.71
2023-02-11T06:22:38.735Z,58.04
2023-02-11T06:25:44.922Z,59.01
2023-02-11T06:28:51.481Z,59.58
2023-02-11T06:31:57.889Z,60.24
2023-02-11T06:35:04.166Z,60.86
2023-02-11T06:38:10.384Z,61.74
2023-02-11T06:41:19.370Z,63.62
2023-02-11T06:44:25.568Z,64.78
2023-02-11T06:47:31.842Z,63.79
2023-02-11T06:50:36.577Z,62.76
2023-02-11T06:53:45.002Z,62.09
2023-02-11T06:56:51.410Z,61.10
2023-02-11T06:59:56.027Z,60.32
2023-02-11T07:03:02.379Z,58.61
2023-02-11T07:06:08.180Z,56.74
2023-02-11T07:09:14.414Z,56.73
2023-02-11T07:12:20.636Z,57.89
2023-02-11T07:15:26.953Z,58.83
2023-02-11T07:18:31.572Z,59.11
2023-02-11T07:21:37.650Z,58.35
2023-02-11T07:24:43.916Z,59.82
2023-02-11T07:27:48.392Z,60.00
2023-02-11T07:30:54.734Z,60.63
2023-02-11T07:34:02.540Z,62.51
2023-02-11T07:37:09.063Z,63.47
2023-02-11T07:40:15.452Z,62.59
2023-02-11T07:43:20.056Z,61.10
2023-02-11T07:46:28.051Z,60.47
2023-02-11T07:49:34.372Z,56.93
2023-02-11T07:52:38.899Z,55.62
2023-02-11T07:55:45.531Z,55.94
2023-02-11T07:58:52.108Z,57.30
2023-02-11T08:01:58.301Z,57.32
2023-02-11T08:05:04.605Z,58.06
2023-02-11T08:08:09.181Z,58.04
2023-02-11T08:11:17.439Z,57.95
2023-02-11T08:14:25.375Z,59.59
2023-02-11T08:17:31.660Z,59.79
2023-02-11T08:20:37.857Z,59.27
2023-02-11T08:23:45.724Z,59.59
2023-02-11T08:26:52.133Z,59.85
2023-02-11T08:29:56.624Z,60.03
2023-02-11T08:33:02.937Z,59.21
2023-02-11T08:36:14.021Z,60.25
2023-02-11T08:39:22.555Z,60.29
2023-02-11T08:42:28.852Z,60.72
2023-02-11T08:45:35.223Z,61.18
2023-02-11T08:48:41.676Z,61.40
2023-02-11T08:51:46.518Z,62.37
2023-02-11T08:54:52.757Z,64.03
2023-02-11T08:57:59.060Z,61.89
2023-02-11T09:01:10.111Z,60.15
2023-02-11T09:04:16.371Z,57.29
2023-02-11T09:07:22.610Z,56.28
2023-02-11T09:10:28.872Z,56.77
2023-02-11T09:13:33.863Z,57.53
2023-02-11T09:16:40.171Z,57.62
2023-02-11T09:19:44.791Z,58.16
2023-02-11T09:22:50.977Z,58.69
2023-02-11T09:25:57.317Z,58.96
2023-02-11T09:29:02.246Z,58.75
2023-02-11T09:32:10.004Z,58.61
2023-02-11T09:35:16.362Z,59.19
2023-02-11T09:38:23.725Z,59.33
2023-02-11T09:41:56.360Z,59.85
2023-02-11T09:45:04.701Z,59.68
2023-02-11T09:48:17.078Z,60.24
2023-02-11T09:51:32.709Z,60.40
2023-02-11T09:54:44.576Z,59.02
2023-02-11T09:57:51.265Z,58.89
2023-02-11T10:01:09.900Z,58.34
2023-02-11T10:04:28.888Z,58.27
2023-02-11T10:07:42.190Z,57.14
2023-02-11T10:10:55.169Z,57.16
2023-02-11T10:14:12.279Z,56.50
2023-02-11T10:17:29.950Z,55.65
2023-02-11T10:20:46.182Z,55.54
2023-02-11T10:23:58.392Z,55.21
2023-02-11T10:27:10.114Z,54.27
2023-02-11T10:30:25.263Z,55.78
2023-02-11T10:33:38.244Z,55.16
2023-02-11T10:36:45.798Z,54.54
2023-02-11T10:39:52.096Z,55.19
2023-02-11T10:42:59.153Z,55.39
2023-02-11T10:46:06.506Z,55.24
2023-02-11T10:49:33.062Z,54.53
2023-02-11T10:52:39.250Z,54.28
2023-02-11T10:55:54.427Z,54.80
2023-02-11T10:59:02.930Z,54.64
2023-02-11T11:02:24.947Z,54.17
2023-02-11T11:05:35.532Z,53.76
2023-02-11T11:08:44.478Z,53.14
2023-02-11T11:11:55.852Z,52.74
2023-02-11T11:15:03.745Z,53.34
2023-02-11T11:18:22.568Z,53.69
2023-02-11T11:21:35.572Z,52.91
2023-02-11T11:24:46.683Z,53.42
2023-02-11T11:27:54.989Z,53.29
2023-02-11T11:31:02.506Z,53.32
2023-02-11T11:34:23.231Z,53.87
2023-02-11T11:37:31.825Z,53.03
2023-02-11T11:40:39.540Z,53.91
2023-02-11T11:44:00.560Z,53.63
2023-02-11T11:47:30.999Z,53.22
2023-02-11T11:50:41.192Z,53.41
2023-02-11T11:53:52.916Z,53.94
2023-02-11T11:57:03.975Z,53.04
2023-02-11T12:00:18.537Z,54.01
2023-02-11T12:03:52.072Z,53.08
2023-02-11T12:07:12.751Z,52.98
2023-02-11T12:10:47.518Z,53.70
2023-02-11T12:14:03.950Z,53.82
2023-02-11T12:17:21.502Z,53.43
2023-02-11T12:20:37.544Z,53.51
2023-02-11T12:23:58.970Z,53.93
2023-02-11T12:27:13.194Z,53.72
2023-02-11T12:30:40.446Z,53.72
2023-02-11T12:34:19.233Z,53.43
2023-02-11T12:37:37.714Z,53.54
2023-02-11T12:40:51.808Z,53.53
2023-02-11T12:43:58.361Z,53.40
2023-02-11T12:47:15.550Z,53.53
2023-02-11T12:50:29.450Z,53.84
2023-02-11T12:54:08.066Z,53.23
2023-02-11T12:57:19.421Z,53.46
2023-02-11T13:00:31.466Z,53.75
2023-02-11T13:03:46.558Z,53.85
2023-02-11T13:06:56.891Z,54.01
2023-02-11T13:10:07.739Z,54.15
2023-02-11T13:13:20.552Z,54.48
2023-02-11T13:16:36.458Z,54.68
2023-02-11T13:19:50.608Z,55.46
2023-02-11T13:23:03.420Z,55.53
2023-02-11T13:26:20.397Z,55.66
2023-02-11T13:29:34.898Z,55.62
2023-02-11T13:33:18.371Z,55.85
2023-02-11T13:36:28.311Z,56.29
2023-02-11T13:39:34.661Z,56.36
2023-02-11T13:42:52.619Z,56.93
2023-02-11T13:46:02.416Z,56.57
2023-02-11T13:49:19.828Z,57.03
2023-02-11T13:52:31.013Z,57.50
2023-02-11T13:55:38.240Z,57.56
2023-02-11T13:58:52.308Z,57.87
2023-02-11T14:02:40.646Z,58.24
2023-02-11T14:06:34.730Z,58.56
2023-02-11T14:09:42.325Z,58.50
2023-02-11T14:13:19.229Z,59.00
2023-02-11T14:16:37.308Z,58.97
2023-02-11T14:19:46.318Z,59.24
2023-02-11T14:22:54.650Z,59.63
2023-02-11T14:26:24.659Z,59.98
2023-02-11T14:29:39.016Z,60.05
2023-02-11T14:32:57.365Z,60.38
2023-02-11T14:36:12.679Z,60.81
2023-02-11T14:39:29.940Z,60.98
2023-02-11T14:42:38.090Z,61.04
2023-02-11T14:45:53.114Z,61.07
2023-02-11T14:49:02.567Z,61.36
2023-02-11T14:52:18.364Z,61.43
2023-02-11T14:55:33.128Z,61.54
2023-02-11T14:58:39.354Z,61.69
2023-02-11T15:01:50.907Z,61.81
2023-02-11T15:05:16.180Z,61.93
2023-02-11T15:08:22.503Z,63.76
2023-02-11T15:11:27.117Z,65.63
2023-02-11T15:14:36.549Z,65.85
2023-02-11T15:17:44.862Z,63.05
2023-02-11T15:20:52.545Z,62.10
2023-02-11T15:24:06.175Z,60.73
2023-02-11T15:27:16.305Z,58.74
2023-02-11T15:30:31.017Z,58.41
2023-02-11T15:33:37.259Z,59.30
2023-02-11T15:36:44.016Z,60.33
2023-02-11T15:39:50.994Z,60.73
2023-02-11T15:42:59.024Z,64.18
2023-02-11T15:46:05.872Z,66.28
2023-02-11T15:49:21.591Z,65.82
2023-02-11T15:52:29.448Z,65.09
2023-02-11T15:55:36.661Z,64.01
2023-02-11T15:58:44.992Z,62.84
2023-02-11T16:01:51.892Z,63.94
2023-02-11T16:05:00.059Z,64.32
2023-02-11T16:08:22.137Z,64.45
2023-02-11T16:11:31.897Z,64.59
2023-02-11T16:14:39.400Z,64.68
2023-02-11T16:17:47.110Z,64.87
2023-02-11T16:20:54.127Z,64.84
2023-02-11T16:24:01.063Z,64.87
2023-02-11T16:27:09.362Z,64.90
2023-02-11T16:30:29.021Z,65.25
2023-02-11T16:33:35.127Z,65.39
2023-02-11T16:36:41.454Z,65.09
2023-02-11T16:39:46.157Z,65.49
2023-02-11T16:42:53.621Z,65.56
2023-02-11T16:46:01.022Z,65.30
2023-02-11T16:49:13.921Z,65.30
2023-02-11T16:52:21.866Z,65.27
2023-02-11T16:55:28.081Z,65.04
2023-02-11T16:58:34.379Z,65.39
2023-02-11T17:01:39.730Z,65.79
2023-02-11T17:04:46.506Z,66.06
2023-02-11T17:07:52.824Z,65.88
2023-02-11T17:10:59.084Z,65.89
2023-02-11T17:14:03.752Z,65.93
2023-02-11T17:17:10.400Z,66.22
2023-02-11T17:20:18.392Z,66.12
2023-02-11T17:23:24.509Z,66.15
2023-02-11T17:26:30.787Z,65.84
2023-02-11T17:29:35.247Z,66.09
2023-02-11T17:32:41.560Z,66.38
2023-02-11T17:35:46.085Z,66.12
2023-02-11T17:38:52.596Z,66.05
2023-02-11T17:41:58.850Z,65.75
2023-02-11T17:45:05.422Z,65.58
2023-02-11T17:48:11.661Z,65.66
2023-02-11T17:51:29.521Z,65.68
2023-02-11T17:54:36.089Z,65.59
2023-02-11T17:57:42.698Z,65.69
2023-02-11T18:00:48.913Z,65.46
2023-02-11T18:03:53.559Z,65.68
2023-02-11T18:06:59.905Z,65.90
2023-02-11T18:10:06.419Z,65.66
2023-02-11T18:13:13.467Z,65.78
2023-02-11T18:16:19.662Z,65.51
2023-02-11T18:19:25.925Z,65.34
2023-02-11T18:22:33.720Z,65.52
2023-02-11T18:25:42.342Z,65.67
2023-02-11T18:28:49.141Z,65.69
2023-02-11T18:31:57.925Z,65.59
2023-02-11T18:35:04.397Z,65.54
2023-02-11T18:38:10.981Z,65.40
2023-02-11T18:41:17.535Z,65.70
2023-02-11T18:44:24.798Z,65.79
2023-02-11T18:47:32.452Z,65.60
2023-02-11T18:50:38.751Z,65.90
2023-02-11T18:53:43.434Z,66.02
2023-02-11T18:56:49.665Z,66.26
2023-02-11T18:59:55.998Z,66.31
2023-02-11T19:03:00.482Z,66.37
2023-02-11T19:06:07.491Z,66.67
2023-02-11T19:09:16.957Z,66.79
2023-02-11T19:12:23.240Z,67.01
2023-02-11T19:15:29.528Z,67.16
2023-02-11T19:18:34.170Z,67.35
2023-02-11T19:21:40.598Z,67.60
2023-02-11T19:24:45.158Z,67.68
2023-02-11T19:27:51.389Z,67.82
2023-02-11T19:30:57.825Z,67.70
2023-02-11T19:34:05.279Z,67.79
2023-02-11T19:37:13.352Z,67.59
2023-02-11T19:40:21.362Z,67.37
2023-02-11T19:43:27.666Z,67.72
2023-02-11T19:46:36.518Z,67.74
2023-02-11T19:49:42.861Z,67.72
2023-02-11T19:52:49.323Z,67.96
2023-02-11T19:55:55.600Z,68.18
2023-02-11T19:59:02.666Z,68.09
2023-02-11T20:02:09.012Z,68.18
2023-02-11T20:05:13.547Z,68.24
2023-02-11T20:08:19.740Z,68.28
2023-02-11T20:11:28.235Z,68.04
2023-02-11T20:14:34.611Z,67.92
2023-02-11T20:17:40.950Z,67.82
2023-02-11T20:20:45.419Z,67.80
2023-02-11T20:23:52.794Z,68.25
2023-02-11T20:26:59.062Z,67.99
2023-02-11T20:30:05.540Z,67.84
2023-02-11T20:33:11.754Z,68.05
2023-02-11T20:36:19.670Z,68.06
2023-02-11T20:39:27.348Z,68.08
2023-02-11T20:42:33.626Z,68.31
2023-02-11T20:45:40.093Z,68.28
2023-02-11T20:48:46.398Z,68.29
2023-02-11T20:51:51.338Z,68.18
2023-02-11T20:54:57.542Z,68.20
2023-02-11T20:58:03.927Z,67.82
2023-02-11T21:01:16.804Z,67.80
2023-02-11T21:04:25.582Z,67.80
2023-02-11T21:07:31.836Z,67.66
2023-02-11T21:10:38.102Z,67.60
2023-02-11T21:13:44.818Z,67.72
2023-02-11T21:16:51.642Z,67.88
2023-02-11T21:19:58.012Z,67.89
2023-02-11T21:23:02.575Z,67.85
2023-02-11T21:26:09.700Z,67.98
2023-02-11T21:29:16.015Z,67.64
2023-02-11T21:32:20.628Z,67.44
2023-02-11T21:35:26.884Z,67.97
2023-02-11T21:38:33.662Z,67.91
2023-02-11T21:41:39.894Z,67.93
2023-02-11T21:44:46.173Z,67.93
2023-02-11T21:47:52.453Z,67.85
2023-02-11T21:50:59.102Z,67.70
2023-02-11T21:54:05.634Z,68.01
2023-02-11T21:57:11.828Z,67.90
2023-02-11T22:00:19.760Z,67.91
2023-02-11T22:03:26.075Z,68.06
2023-02-11T22:06:34.968Z,68.01
2023-02-11T22:09:43.178Z,68.34
2023-02-11T22:12:49.869Z,68.26
2023-02-11T22:16:02.542Z,68.42
2023-02-11T22:19:09.005Z,68.45
2023-02-11T22:22:18.395Z,68.30
2023-02-11T22:25:24.697Z,68.39
2023-02-11T22:28:30.923Z,68.42
2023-02-11T22:31:38.051Z,68.33
2023-02-11T22:34:44.626Z,68.28
2023-02-11T22:37:51.217Z,67.85
2023-02-11T22:40:57.535Z,68.28
2023-02-11T22:44:02.222Z,68.29
2023-02-11T22:47:08.541Z,68.47
2023-02-11T22:50:13.465Z,68.31
2023-02-11T22:53:19.730Z,68.43
2023-02-11T22:56:26.772Z,68.45
2023-02-11T22:59:33.062Z,68.36
2023-02-11T23:02:39.531Z,68.31
2023-02-11T23:05:45.817Z,68.31
2023-02-11T23:08:52.093Z,68.38
2023-02-11T23:11:58.008Z,68.57
2023-02-11T23:15:05.216Z,68.60
2023-02-11T23:18:12.362Z,68.42
2023-02-11T23:21:21.309Z,68.56
2023-02-11T23:24:27.668Z,68.49
2023-02-11T23:27:32.225Z,68.40
2023-02-11T23:30:38.501Z,68.66
2023-02-11T23:33:43.050Z,68.54
2023-02-11T23:36:49.298Z,68.78
2023-02-11T23:39:55.527Z,68.77
2023-02-11T23:43:01.833Z,68.79
2023-02-11T23:46:07.000Z,68.80
2023-02-11T23:49:13.234Z,69.02
2023-02-11T23:52:19.657Z,68.78
2023-02-11T23:55:25.952Z,68.87
2023-02-11T23:58:32.608Z,69.02
